Time;durP1;ratioP1;P1;durP2;ratioP2;P2;SDS_P1;SDS_P2;PMS_P1;PMS_P2;Temp;Humidity;BMP_temperature;BMP_pressure;BME280_temperature;BME280_humidity;BME280_pressure;Samples;Min_cycle;Max_cycle;Signal;HPM_P1;HPM_P2
2023/03/06 00:06:45;;;;;;;23.25;10.70;;;;;;;3.33;100.00;99625.22;20825541;28;20053;-80
2023/03/06 00:16:46;;;;;;;23.80;11.38;;;;;;;3.25;100.00;99642.44;20833638;28;20119;-79
2023/03/06 00:26:47;;;;;;;22.35;11.48;;;;;;;3.20;100.00;99640.69;20848765;28;20045;-79
2023/03/06 00:36:48;;;;;;;22.45;11.20;;;;;;;3.21;100.00;99621.72;20849914;28;20502;-80
2023/03/06 00:46:49;;;;;;;22.98;11.35;;;;;;;3.16;100.00;99611.38;20835332;28;20060;-79
2023/03/06 00:56:51;;;;;;;24.92;11.43;;;;;;;3.15;100.00;99607.06;20834802;28;20627;-79
2023/03/06 01:06:52;;;;;;;21.65;11.60;;;;;;;3.11;100.00;99597.56;20846221;28;20050;-80
2023/03/06 01:16:53;;;;;;;22.75;10.48;;;;;;;3.12;100.00;99583.81;20840586;28;20498;-79
2023/03/06 01:26:55;;;;;;;21.25;10.27;;;;;;;3.11;100.00;99561.38;20842368;28;20159;-79
2023/03/06 01:36:56;;;;;;;23.42;10.90;;;;;;;3.11;100.00;99548.44;20840970;28;20064;-79
2023/03/06 01:46:57;;;;;;;22.02;10.50;;;;;;;3.11;100.00;99530.34;20846555;28;20054;-80
2023/03/06 01:56:58;;;;;;;23.45;11.55;;;;;;;3.00;100.00;99524.31;20840136;28;20318;-80
2023/03/06 02:07:00;;;;;;;23.27;10.43;;;;;;;3.00;100.00;99519.13;20831318;28;20127;-80
2023/03/06 02:17:01;;;;;;;20.80;11.23;;;;;;;2.97;100.00;99504.50;20820272;28;20066;-79
2023/03/06 02:27:02;;;;;;;23.67;11.07;;;;;;;2.94;100.00;99491.56;20789365;28;20552;-79
2023/03/06 02:37:04;;;;;;;23.85;11.95;;;;;;;2.96;100.00;99488.94;20831179;28;20042;-80
2023/03/06 02:47:06;;;;;;;23.52;11.32;;;;;;;2.88;100.00;99480.34;20847741;28;20046;-79
2023/03/06 02:57:08;;;;;;;22.83;11.65;;;;;;;2.86;100.00;99472.56;20846180;28;20049;-79
2023/03/06 03:07:09;;;;;;;28.95;12.25;;;;;;;2.81;100.00;99466.53;20841783;28;20042;-80
2023/03/06 03:17:10;;;;;;;25.30;11.30;;;;;;;2.76;100.00;99461.38;20805334;28;20041;-79
2023/03/06 03:27:11;;;;;;;26.63;11.73;;;;;;;2.79;100.00;99451.03;20789388;28;20126;-78
2023/03/06 03:37:13;;;;;;;29.45;12.73;;;;;;;2.78;100.00;99444.16;20802001;28;20046;-79
2023/03/06 03:47:14;;;;;;;26.50;13.30;;;;;;;2.79;100.00;99450.19;20794666;28;20418;-79
2023/03/06 03:57:15;;;;;;;27.52;12.52;;;;;;;2.75;100.00;99433.81;20788041;28;20101;-78
2023/03/06 04:07:17;;;;;;;25.27;13.10;;;;;;;2.78;100.00;99428.66;20800866;28;20582;-78
2023/03/06 04:17:18;;;;;;;27.27;12.88;;;;;;;2.73;100.00;99407.13;20792401;28;20103;-78
2023/03/06 04:27:19;;;;;;;29.02;13.52;;;;;;;2.75;100.00;99407.09;20808969;28;20053;-79
2023/03/06 04:37:20;;;;;;;28.73;13.30;;;;;;;2.70;100.00;99398.50;20811300;28;20068;-80
2023/03/06 04:47:21;;;;;;;28.63;12.75;;;;;;;2.71;100.00;99388.13;20806196;28;20058;-79
2023/03/06 04:57:23;;;;;;;30.30;13.48;;;;;;;2.72;100.00;99382.09;20798273;28;20054;-79
2023/03/06 05:07:24;;;;;;;25.92;11.98;;;;;;;2.67;100.00;99382.97;20790352;28;20383;-79
2023/03/06 05:17:25;;;;;;;27.77;12.32;;;;;;;2.68;100.00;99382.97;20802258;28;20049;-79
2023/03/06 05:27:27;;;;;;;29.17;14.35;;;;;;;2.72;100.00;99374.34;20818759;28;20092;-80
2023/03/06 05:37:28;;;;;;;28.20;13.20;;;;;;;2.68;100.00;99370.03;20807907;28;20451;-81
2023/03/06 05:47:29;;;;;;;26.60;13.70;;;;;;;2.62;100.00;99375.22;20812788;28;20053;-81
2023/03/06 05:57:31;;;;;;;26.75;12.27;;;;;;;2.64;100.00;99378.69;20812091;28;20092;-81
2023/03/06 06:07:32;;;;;;;28.42;13.00;;;;;;;2.65;100.00;99374.38;20824643;28;20060;-80
2023/03/06 06:17:33;;;;;;;28.23;11.98;;;;;;;2.66;100.00;99371.78;20815147;28;20045;-81
2023/03/06 06:27:35;;;;;;;27.08;11.73;;;;;;;2.66;100.00;99376.94;20824338;28;20140;-81
2023/03/06 06:37:36;;;;;;;28.02;12.85;;;;;;;2.70;100.00;99389.00;20813872;28;20084;-81
2023/03/06 06:47:40;;;;;;;27.48;12.75;;;;;;;2.66;100.00;99397.63;20806513;28;20129;-80
2023/03/06 06:57:41;;;;;;;28.27;13.57;;;;;;;2.72;100.00;99392.44;20841439;28;20422;-80
2023/03/06 07:07:43;;;;;;;27.70;13.63;;;;;;;2.74;100.00;99405.38;20838281;28;20054;-81
2023/03/06 07:17:45;;;;;;;33.08;14.15;;;;;;;2.74;100.00;99411.41;20847321;28;20075;-82
2023/03/06 07:27:49;;;;;;;36.17;15.82;;;;;;;2.79;100.00;99409.69;20826131;28;20112;-82
2023/03/06 07:37:54;;;;;;;30.80;13.55;;;;;;;2.90;100.00;99406.22;20866458;28;20077;-82
2023/03/06 07:47:55;;;;;;;28.00;12.98;;;;;;;2.97;100.00;99413.09;20813085;28;20052;-80
2023/03/06 07:57:56;;;;;;;26.38;12.38;;;;;;;3.00;100.00;99413.13;20775202;28;20131;-81
2023/03/06 08:07:58;;;;;;;35.65;15.73;;;;;;;2.90;100.00;99416.56;20785565;28;20049;-81
2023/03/06 08:17:59;;;;;;;30.20;13.35;;;;;;;3.07;100.00;99420.88;20800021;28;20084;-81
2023/03/06 08:28:00;;;;;;;33.85;15.07;;;;;;;3.29;100.00;99426.84;20803696;23;20054;-71
2023/03/06 08:38:02;;;;;;;52.08;13.60;;;;;;;3.75;100.00;99428.47;20770218;28;20431;-70
2023/03/06 08:48:03;;;;;;;27.98;13.32;;;;;;;3.48;100.00;99438.03;20771801;28;20050;-70
2023/03/06 08:58:04;;;;;;;29.98;13.68;;;;;;;3.44;100.00;99445.78;20770395;28;20123;-70
2023/03/06 09:08:05;;;;;;;53.90;22.38;;;;;;;3.63;100.00;99437.13;20770376;28;20108;-70
2023/03/06 09:18:07;;;;;;;52.45;22.30;;;;;;;3.67;100.00;99444.00;20766822;28;20046;-70
2023/03/06 09:28:08;;;;;;;41.65;18.48;;;;;;;3.85;100.00;99443.94;20770129;28;20137;-70
2023/03/06 09:38:12;;;;;;;28.50;14.70;;;;;;;4.19;100.00;99445.53;20765832;28;20057;-70
2023/03/06 09:48:13;;;;;;;26.25;12.55;;;;;;;4.29;100.00;99447.19;20768246;28;20120;-69
2023/03/06 09:58:15;;;;;;;26.58;12.90;;;;;;;4.54;100.00;99448.75;20762595;28;20092;-69
2023/03/06 10:08:16;;;;;;;23.33;11.82;;;;;;;4.75;100.00;99455.53;20769866;28;20210;-69
2023/03/06 10:18:18;;;;;;;23.92;12.48;;;;;;;5.25;100.00;99441.28;20764930;28;20084;-69
2023/03/06 10:28:19;;;;;;;22.33;11.98;;;;;;;5.38;100.00;99434.22;20757670;28;20501;-70
2023/03/06 10:38:20;;;;;;;19.85;10.43;;;;;;;5.32;100.00;99442.94;20770792;28;20057;-71
2023/03/06 10:48:22;;;;;;;24.42;10.32;;;;;;;5.36;100.00;99428.19;20768995;28;20471;-70
2023/03/06 10:58:23;;;;;;;26.00;12.30;;;;;;;5.70;100.00;99428.69;20792869;28;20234;-69
2023/03/06 11:08:24;;;;;;;20.42;10.82;;;;;;;5.93;100.00;99425.84;20767329;28;20406;-70
2023/03/06 11:18:26;;;;;;;19.98;10.35;;;;;;;6.12;100.00;99421.25;20773021;28;20049;-70
2023/03/06 11:28:27;;;;;;;22.75;10.85;;;;;;;5.97;100.00;99405.88;20768219;28;20081;-70
2023/03/06 11:38:31;;;;;;;17.55;9.88;;;;;;;6.23;100.00;99393.41;20768633;28;20061;-70
2023/03/06 11:48:32;;;;;;;16.98;9.52;;;;;;;6.48;96.86;99387.84;20776776;28;20085;-71
2023/03/06 11:58:33;;;;;;;15.48;8.77;;;;;;;6.21;97.95;99389.94;20760461;28;20080;-71
2023/03/06 12:08:34;;;;;;;17.67;8.63;;;;;;;6.04;96.33;99381.53;20772095;28;20057;-69
2023/03/06 12:18:35;;;;;;;18.48;8.05;;;;;;;6.23;95.44;99377.81;20765802;28;20122;-71
2023/03/06 12:28:37;;;;;;;15.98;8.18;;;;;;;5.93;100.00;99366.06;20777622;28;20061;-73
2023/03/06 12:38:38;;;;;;;14.73;8.23;;;;;;;5.95;100.00;99364.34;20770671;28;20057;-70
2023/03/06 12:48:39;;;;;;;19.55;9.07;;;;;;;5.60;100.00;99359.53;20763388;28;20332;-69
2023/03/06 12:58:40;;;;;;;19.10;9.32;;;;;;;5.68;100.00;99352.53;20769148;28;20112;-70
2023/03/06 13:08:42;;;;;;;17.42;8.63;;;;;;;5.75;100.00;99345.50;20765586;28;20061;-71
2023/03/06 13:18:44;;;;;;;16.05;8.60;;;;;;;5.78;100.00;99346.31;20765742;28;20100;-71
2023/03/06 13:28:47;;;;;;;16.17;7.53;;;;;;;5.67;100.00;99343.03;20762151;28;20469;-70
2023/03/06 13:38:48;;;;;;;18.13;8.48;;;;;;;5.66;100.00;99333.53;20772558;28;20112;-71
2023/03/06 13:48:50;;;;;;;16.38;8.27;;;;;;;5.66;100.00;99326.59;20764214;28;20472;-70
2023/03/06 13:58:53;;;;;;;18.33;8.90;;;;;;;5.51;100.00;99331.97;20759206;28;20057;-70
2023/03/06 14:08:54;;;;;;;20.38;8.75;;;;;;;5.48;100.00;99338.94;20757420;28;20065;-70
2023/03/06 14:18:56;;;;;;;19.45;10.07;;;;;;;5.49;100.00;99330.28;20758628;28;20058;-70
2023/03/06 14:28:57;;;;;;;21.23;10.30;;;;;;;5.56;100.00;99322.41;20773465;28;20084;-70
2023/03/06 14:38:58;;;;;;;19.85;11.43;;;;;;;5.47;100.00;99317.31;20773290;28;20506;-70
2023/03/06 14:49:00;;;;;;;23.35;11.48;;;;;;;5.60;100.00;99312.81;20783223;28;20058;-69
2023/03/06 14:59:01;;;;;;;21.13;10.82;;;;;;;5.35;100.00;99315.72;20780536;28;20521;-69
2023/03/06 15:09:03;;;;;;;19.70;10.25;;;;;;;5.37;100.00;99305.34;20773380;28;20050;-70
2023/03/06 15:19:07;;;;;;;20.80;10.25;;;;;;;5.50;100.00;99308.63;20767063;28;20140;-70
2023/03/06 15:29:12;;;;;;;23.73;11.65;;;;;;;5.48;100.00;99305.19;20768408;28;20053;-70
2023/03/06 15:39:13;;;;;;;22.98;11.50;;;;;;;5.43;100.00;99304.41;20776692;28;20050;-70
2023/03/06 15:49:15;;;;;;;24.42;11.70;;;;;;;5.30;100.00;99309.72;20768140;28;20061;-70
2023/03/06 15:59:16;;;;;;;22.23;11.70;;;;;;;5.34;100.00;99311.41;20776926;28;20050;-70
2023/03/06 16:09:17;;;;;;;24.17;11.98;;;;;;;5.14;100.00;99319.44;20771067;28;20076;-70
2023/03/06 16:19:19;;;;;;;22.73;11.07;;;;;;;4.88;100.00;99336.97;20787751;28;20540;-70
2023/03/06 16:29:28;;;;;;;17.13;9.10;;;;;;;4.74;100.00;99334.50;20780170;28;20132;-70
2023/03/06 16:39:29;;;;;;;15.05;6.90;;;;;;;4.63;94.63;99331.16;20776330;28;20434;-70
2023/03/06 16:49:30;;;;;;;14.52;6.75;;;;;;;4.59;96.47;99339.84;20768270;28;20120;-70
2023/03/06 16:59:32;;;;;;;14.63;7.25;;;;;;;4.53;93.07;99345.09;20768066;28;20092;-70
2023/03/06 17:09:33;;;;;;;15.43;7.32;;;;;;;4.45;94.93;99346.88;20766522;28;20457;-70
2023/03/06 17:19:34;;;;;;;15.27;7.43;;;;;;;4.32;95.34;99351.31;20760774;28;20061;-70
2023/03/06 17:29:36;;;;;;;16.45;7.45;;;;;;;4.35;95.83;99366.81;20762217;28;20576;-70
2023/03/06 17:39:37;;;;;;;16.58;8.07;;;;;;;4.27;96.62;99369.47;20764667;28;20127;-70
2023/03/06 17:49:38;;;;;;;15.82;7.70;;;;;;;4.21;98.64;99379.00;20764752;28;20469;-68
2023/03/06 17:59:45;;;;;;;15.18;7.45;;;;;;;4.22;99.67;99384.19;20761374;28;20606;-69
2023/03/06 18:09:46;;;;;;;15.70;8.18;;;;;;;4.18;100.00;99374.72;20763681;28;20426;-68
2023/03/06 18:19:48;;;;;;;17.05;8.02;;;;;;;4.17;99.66;99373.00;20757554;28;20136;-68
2023/03/06 18:29:51;;;;;;;15.95;8.43;;;;;;;4.22;98.30;99388.53;20777552;28;20057;-70
2023/03/06 18:39:52;;;;;;;18.30;8.57;;;;;;;4.10;99.81;99381.66;20777943;28;20076;-69
2023/03/06 18:49:54;;;;;;;21.13;9.63;;;;;;;4.07;100.00;99376.50;20770071;28;20057;-68
2023/03/06 18:59:55;;;;;;;19.48;8.65;;;;;;;4.05;100.00;99378.25;20760602;28;20424;-69
2023/03/06 19:09:56;;;;;;;18.30;9.55;;;;;;;3.99;100.00;99373.13;20748424;28;20076;-69
2023/03/06 19:19:58;;;;;;;20.30;9.88;;;;;;;3.98;100.00;99361.91;20772817;28;20069;-69
2023/03/06 19:29:59;;;;;;;18.60;10.20;;;;;;;3.94;100.00;99361.91;20773944;28;21369;-69
2023/03/06 19:40:02;;;;;;;22.98;11.70;;;;;;;3.93;100.00;99365.34;20770467;28;20066;-69
2023/03/06 19:50:03;;;;;;;20.92;10.80;;;;;;;3.88;100.00;99352.47;20763145;28;20124;-69
2023/03/06 20:00:05;;;;;;;34.53;15.82;;;;;;;3.89;100.00;99345.56;20747724;28;20053;-69
2023/03/06 20:10:06;;;;;;;28.13;14.13;;;;;;;3.83;100.00;99339.53;20772819;28;20080;-68
2023/03/06 20:20:07;;;;;;;29.95;13.95;;;;;;;3.89;100.00;99330.88;20768101;28;20563;-68
2023/03/06 20:30:08;;;;;;;25.38;12.73;;;;;;;3.92;100.00;99325.66;20772899;28;20054;-68
2023/03/06 20:40:10;;;;;;;24.92;12.55;;;;;;;3.84;100.00;99328.31;20768342;28;20057;-68
2023/03/06 20:50:11;;;;;;;26.35;12.43;;;;;;;3.89;100.00;99317.06;20771187;28;20054;-69
2023/03/06 21:00:12;;;;;;;26.23;13.15;;;;;;;3.76;100.00;99314.53;20768911;28;20465;-69
2023/03/06 21:10:14;;;;;;;28.35;12.55;;;;;;;3.79;100.00;99299.00;20768889;28;20099;-69
2023/03/06 21:20:15;;;;;;;26.77;13.18;;;;;;;3.71;100.00;99289.56;20762936;28;20187;-74
2023/03/06 21:30:16;;;;;;;26.85;13.10;;;;;;;3.69;100.00;99288.69;20765480;28;20444;-72
2023/03/06 21:40:17;;;;;;;27.45;12.57;;;;;;;3.60;100.00;99280.13;20763679;28;20057;-71
2023/03/06 21:50:20;;;;;;;27.58;12.90;;;;;;;3.52;100.00;99283.63;20764542;28;21248;-71
2023/03/06 22:00:22;;;;;;;24.42;11.95;;;;;;;3.40;100.00;99275.91;20765521;28;20198;-71
2023/03/06 22:10:24;;;;;;;23.83;11.73;;;;;;;3.26;100.00;99278.56;20764920;28;20056;-71
2023/03/06 22:20:25;;;;;;;27.95;12.57;;;;;;;3.32;100.00;99281.13;20767858;28;20445;-71
2023/03/06 22:30:26;;;;;;;25.05;12.18;;;;;;;3.38;100.00;99269.88;20770649;28;20041;-73
2023/03/06 22:40:27;;;;;;;28.35;13.15;;;;;;;3.46;100.00;99257.78;20779192;28;20046;-72
2023/03/06 22:50:28;;;;;;;23.25;12.02;;;;;;;3.40;100.00;99247.44;20777896;28;20456;-72
2023/03/06 23:10:50;;;;;;;24.60;11.57;;;;;;;3.46;100.00;99234.50;13290847;26;20057;-78
2023/03/06 23:20:54;;;;;;;27.33;12.03;;;;;;;3.49;100.00;99213.75;20791456;23;20137;-72
2023/03/06 23:30:55;;;;;;;23.48;11.05;;;;;;;3.56;100.00;99218.03;20818097;28;20065;-71
2023/03/06 23:40:56;;;;;;;24.80;11.27;;;;;;;3.62;100.00;99223.16;20817299;28;20408;-72
2023/03/06 23:50:58;;;;;;;26.08;12.88;;;;;;;3.55;100.00;99224.09;20816398;28;20065;-72
